sensor_id;sensor_type;location;lat;lon;timestamp;pressure;altitude;pressure_sealevel;temperature;humidity
76730;BME280;65653;53.106;18.046;2023-08-01T00:00:44;99704.48;;;18.67;72.01
76730;BME280;65653;53.106;18.046;2023-08-01T00:03:25;99708.02;;;18.68;72.09
76730;BME280;65653;53.106;18.046;2023-08-01T00:05:52;99707.73;;;18.66;71.97
76730;BME280;65653;53.106;18.046;2023-08-01T00:08:18;99706.23;;;18.65;72.25
76730;BME280;65653;53.106;18.046;2023-08-01T00:10:45;99704.73;;;18.61;72.23
76730;BME280;65653;53.106;18.046;2023-08-01T00:13:12;99698.44;;;18.58;72.31
76730;BME280;65653;53.106;18.046;2023-08-01T00:15:39;99691.77;;;18.57;72.46
76730;BME280;65653;53.106;18.046;2023-08-01T00:18:05;99684.81;;;18.56;72.28
76730;BME280;65653;53.106;18.046;2023-08-01T00:20:32;99673.88;;;18.55;72.27
76730;BME280;65653;53.106;18.046;2023-08-01T00:22:58;99676.41;;;18.53;72.65
76730;BME280;65653;53.106;18.046;2023-08-01T00:25:25;99673.20;;;18.50;72.67
76730;BME280;65653;53.106;18.046;2023-08-01T00:27:52;99672.20;;;18.46;72.88
76730;BME280;65653;53.106;18.046;2023-08-01T00:30:19;99668.02;;;18.43;73.09
76730;BME280;65653;53.106;18.046;2023-08-01T00:32:47;99667.80;;;18.41;73.04
76730;BME280;65653;53.106;18.046;2023-08-01T00:35:15;99662.36;;;18.39;73.06
76730;BME280;65653;53.106;18.046;2023-08-01T00:37:42;99662.26;;;18.37;73.22
76730;BME280;65653;53.106;18.046;2023-08-01T00:40:09;99661.48;;;18.34;73.10
76730;BME280;65653;53.106;18.046;2023-08-01T00:42:39;99654.23;;;18.31;73.23
76730;BME280;65653;53.106;18.046;2023-08-01T00:45:09;99654.13;;;18.29;73.33
76730;BME280;65653;53.106;18.046;2023-08-01T00:47:36;99647.52;;;18.27;73.45
76730;BME280;65653;53.106;18.046;2023-08-01T00:50:03;99642.69;;;18.25;73.38
76730;BME280;65653;53.106;18.046;2023-08-01T00:52:30;99637.36;;;18.23;73.63
76730;BME280;65653;53.106;18.046;2023-08-01T00:54:57;99631.98;;;18.21;73.67
76730;BME280;65653;53.106;18.046;2023-08-01T00:57:24;99631.42;;;18.21;73.80
76730;BME280;65653;53.106;18.046;2023-08-01T00:59:50;99627.51;;;18.23;73.80
76730;BME280;65653;53.106;18.046;2023-08-01T01:02:17;99621.73;;;18.22;73.70
76730;BME280;65653;53.106;18.046;2023-08-01T01:04:43;99616.23;;;18.22;73.81
76730;BME280;65653;53.106;18.046;2023-08-01T01:07:11;99612.31;;;18.20;73.80
76730;BME280;65653;53.106;18.046;2023-08-01T01:09:39;99606.54;;;18.20;73.76
76730;BME280;65653;53.106;18.046;2023-08-01T01:12:06;99603.77;;;18.21;73.65
76730;BME280;65653;53.106;18.046;2023-08-01T01:14:34;99602.73;;;18.20;73.82
76730;BME280;65653;53.106;18.046;2023-08-01T01:17:01;99599.19;;;18.20;73.78
76730;BME280;65653;53.106;18.046;2023-08-01T01:19:28;99595.89;;;18.18;73.68
76730;BME280;65653;53.106;18.046;2023-08-01T01:21:55;99593.25;;;18.16;74.02
76730;BME280;65653;53.106;18.046;2023-08-01T01:24:22;99588.83;;;18.16;73.82
76730;BME280;65653;53.106;18.046;2023-08-01T01:26:51;99585.45;;;18.16;73.93
76730;BME280;65653;53.106;18.046;2023-08-01T01:29:18;99580.36;;;18.17;73.87
76730;BME280;65653;53.106;18.046;2023-08-01T01:31:45;99583.84;;;18.16;73.97
76730;BME280;65653;53.106;18.046;2023-08-01T01:34:14;99577.63;;;18.18;73.93
76730;BME280;65653;53.106;18.046;2023-08-01T01:36:41;99572.80;;;18.17;74.01
76730;BME280;65653;53.106;18.046;2023-08-01T01:39:08;99573.85;;;18.20;74.02
76730;BME280;65653;53.106;18.046;2023-08-01T01:41:35;99573.52;;;18.21;73.98
76730;BME280;65653;53.106;18.046;2023-08-01T01:44:02;99569.65;;;18.21;74.01
76730;BME280;65653;53.106;18.046;2023-08-01T01:46:29;99560.52;;;18.23;73.87
76730;BME280;65653;53.106;18.046;2023-08-01T01:48:55;99559.10;;;18.23;73.67
76730;BME280;65653;53.106;18.046;2023-08-01T01:51:28;99550.08;;;18.23;73.57
76730;BME280;65653;53.106;18.046;2023-08-01T01:53:54;99550.52;;;18.25;73.58
76730;BME280;65653;53.106;18.046;2023-08-01T01:56:21;99551.70;;;18.26;73.59
76730;BME280;65653;53.106;18.046;2023-08-01T01:58:48;99550.02;;;18.27;73.35
76730;BME280;65653;53.106;18.046;2023-08-01T02:01:15;99545.75;;;18.29;73.57
76730;BME280;65653;53.106;18.046;2023-08-01T02:03:42;99537.69;;;18.27;73.43
76730;BME280;65653;53.106;18.046;2023-08-01T02:06:09;99532.52;;;18.24;73.43
76730;BME280;65653;53.106;18.046;2023-08-01T02:08:36;99526.94;;;18.22;73.67
76730;BME280;65653;53.106;18.046;2023-08-01T02:11:02;99527.05;;;18.20;73.75
76730;BME280;65653;53.106;18.046;2023-08-01T02:13:31;99522.58;;;18.17;73.76
76730;BME280;65653;53.106;18.046;2023-08-01T02:15:58;99517.20;;;18.16;74.02
76730;BME280;65653;53.106;18.046;2023-08-01T02:18:25;99514.27;;;18.13;74.16
76730;BME280;65653;53.106;18.046;2023-08-01T02:20:51;99510.48;;;18.09;74.18
76730;BME280;65653;53.106;18.046;2023-08-01T02:23:18;99502.86;;;18.05;74.29
76730;BME280;65653;53.106;18.046;2023-08-01T02:25:44;99500.01;;;18.04;74.41
76730;BME280;65653;53.106;18.046;2023-08-01T02:28:14;99498.34;;;18.02;74.49
76730;BME280;65653;53.106;18.046;2023-08-01T02:30:40;99490.99;;;17.99;74.57
76730;BME280;65653;53.106;18.046;2023-08-01T02:33:07;99486.58;;;17.97;74.73
76730;BME280;65653;53.106;18.046;2023-08-01T02:35:34;99482.60;;;17.94;74.81
76730;BME280;65653;53.106;18.046;2023-08-01T02:38:01;99485.07;;;17.92;74.97
76730;BME280;65653;53.106;18.046;2023-08-01T02:40:30;99476.00;;;17.89;75.16
76730;BME280;65653;53.106;18.046;2023-08-01T02:42:57;99477.40;;;17.87;75.19
76730;BME280;65653;53.106;18.046;2023-08-01T02:45:24;99475.05;;;17.84;75.29
76730;BME280;65653;53.106;18.046;2023-08-01T02:47:52;99473.65;;;17.82;75.47
76730;BME280;65653;53.106;18.046;2023-08-01T02:50:18;99472.48;;;17.81;75.56
76730;BME280;65653;53.106;18.046;2023-08-01T02:52:45;99468.28;;;17.81;75.58
76730;BME280;65653;53.106;18.046;2023-08-01T02:55:12;99465.98;;;17.80;75.55
76730;BME280;65653;53.106;18.046;2023-08-01T02:57:38;99465.83;;;17.80;75.81
76730;BME280;65653;53.106;18.046;2023-08-01T03:00:06;99468.34;;;17.80;75.89
76730;BME280;65653;53.106;18.046;2023-08-01T03:02:38;99467.67;;;17.79;75.86
76730;BME280;65653;53.106;18.046;2023-08-01T03:05:07;99461.05;;;17.80;76.00
76730;BME280;65653;53.106;18.046;2023-08-01T03:07:34;99464.48;;;17.80;76.01
76730;BME280;65653;53.106;18.046;2023-08-01T03:10:01;99464.75;;;17.81;75.91
76730;BME280;65653;53.106;18.046;2023-08-01T03:12:28;99463.46;;;17.81;75.72
76730;BME280;65653;53.106;18.046;2023-08-01T03:14:55;99458.03;;;17.81;75.97
76730;BME280;65653;53.106;18.046;2023-08-01T03:17:24;99458.81;;;17.79;76.04
76730;BME280;65653;53.106;18.046;2023-08-01T03:19:50;99457.42;;;17.78;76.09
76730;BME280;65653;53.106;18.046;2023-08-01T03:22:17;99456.08;;;17.77;76.17
76730;BME280;65653;53.106;18.046;2023-08-01T03:24:44;99455.23;;;17.77;76.11
76730;BME280;65653;53.106;18.046;2023-08-01T03:27:10;99451.70;;;17.76;76.32
76730;BME280;65653;53.106;18.046;2023-08-01T03:29:37;99452.44;;;17.76;76.18
76730;BME280;65653;53.106;18.046;2023-08-01T03:32:04;99449.86;;;17.77;76.12
76730;BME280;65653;53.106;18.046;2023-08-01T03:34:31;99442.18;;;17.78;76.14
76730;BME280;65653;53.106;18.046;2023-08-01T03:36:57;99438.59;;;17.78;76.42
76730;BME280;65653;53.106;18.046;2023-08-01T03:39:26;99438.59;;;17.78;76.33
76730;BME280;65653;53.106;18.046;2023-08-01T03:41:53;99435.68;;;17.77;76.55
76730;BME280;65653;53.106;18.046;2023-08-01T03:44:19;99431.16;;;17.77;76.62
76730;BME280;65653;53.106;18.046;2023-08-01T03:46:48;99427.52;;;17.75;76.91
76730;BME280;65653;53.106;18.046;2023-08-01T03:49:15;99429.59;;;17.74;77.21
76730;BME280;65653;53.106;18.046;2023-08-01T03:51:42;99427.52;;;17.70;77.65
76730;BME280;65653;53.106;18.046;2023-08-01T03:54:09;99425.96;;;17.67;77.91
76730;BME280;65653;53.106;18.046;2023-08-01T03:56:36;99425.06;;;17.63;78.65
76730;BME280;65653;53.106;18.046;2023-08-01T03:59:05;99422.44;;;17.52;79.54
76730;BME280;65653;53.106;18.046;2023-08-01T04:01:32;99417.49;;;17.39;80.55
76730;BME280;65653;53.106;18.046;2023-08-01T04:03:58;99419.86;;;17.28;81.21
76730;BME280;65653;53.106;18.046;2023-08-01T04:06:25;99426.23;;;17.18;81.91
76730;BME280;65653;53.106;18.046;2023-08-01T04:08:52;99426.13;;;17.06;82.88
76730;BME280;65653;53.106;18.046;2023-08-01T04:11:19;99428.06;;;16.95;83.50
76730;BME280;65653;53.106;18.046;2023-08-01T04:13:45;99422.96;;;16.89;83.89
76730;BME280;65653;53.106;18.046;2023-08-01T04:16:12;99418.32;;;16.84;84.33
76730;BME280;65653;53.106;18.046;2023-08-01T04:18:39;99419.16;;;16.80;85.19
76730;BME280;65653;53.106;18.046;2023-08-01T04:21:06;99414.17;;;16.77;85.78
76730;BME280;65653;53.106;18.046;2023-08-01T04:23:34;99414.95;;;16.72;86.03
76730;BME280;65653;53.106;18.046;2023-08-01T04:26:01;99415.71;;;16.71;86.28
76730;BME280;65653;53.106;18.046;2023-08-01T04:28:28;99411.80;;;16.70;86.65
76730;BME280;65653;53.106;18.046;2023-08-01T04:30:54;99413.88;;;16.69;86.99
76730;BME280;65653;53.106;18.046;2023-08-01T04:33:21;99409.62;;;16.69;86.64
76730;BME280;65653;53.106;18.046;2023-08-01T04:35:49;99408.90;;;16.68;87.18
76730;BME280;65653;53.106;18.046;2023-08-01T04:38:16;99408.38;;;16.69;87.19
76730;BME280;65653;53.106;18.046;2023-08-01T04:40:43;99408.96;;;16.69;87.59
76730;BME280;65653;53.106;18.046;2023-08-01T04:43:11;99407.16;;;16.69;87.74
76730;BME280;65653;53.106;18.046;2023-08-01T04:45:37;99406.44;;;16.67;87.58
76730;BME280;65653;53.106;18.046;2023-08-01T04:48:04;99402.95;;;16.65;87.97
76730;BME280;65653;53.106;18.046;2023-08-01T04:50:31;99401.45;;;16.65;88.67
76730;BME280;65653;53.106;18.046;2023-08-01T04:52:57;99401.67;;;16.63;88.89
76730;BME280;65653;53.106;18.046;2023-08-01T04:55:24;99401.73;;;16.58;89.34
76730;BME280;65653;53.106;18.046;2023-08-01T04:57:50;99397.11;;;16.53;90.07
76730;BME280;65653;53.106;18.046;2023-08-01T05:00:17;99399.98;;;16.49;90.74
76730;BME280;65653;53.106;18.046;2023-08-01T05:02:44;99405.55;;;16.45;91.47
76730;BME280;65653;53.106;18.046;2023-08-01T05:05:10;99404.77;;;16.41;91.96
76730;BME280;65653;53.106;18.046;2023-08-01T05:07:37;99400.45;;;16.41;92.11
76730;BME280;65653;53.106;18.046;2023-08-01T05:10:04;99397.66;;;16.40;92.21
76730;BME280;65653;53.106;18.046;2023-08-01T05:12:31;99396.50;;;16.43;92.97
76730;BME280;65653;53.106;18.046;2023-08-01T05:14:57;99400.56;;;16.41;93.45
76730;BME280;65653;53.106;18.046;2023-08-01T05:17:24;99399.05;;;16.37;93.74
76730;BME280;65653;53.106;18.046;2023-08-01T05:19:51;99397.14;;;16.33;94.55
76730;BME280;65653;53.106;18.046;2023-08-01T05:22:17;99394.28;;;16.29;94.74
76730;BME280;65653;53.106;18.046;2023-08-01T05:24:44;99395.39;;;16.28;94.87
76730;BME280;65653;53.106;18.046;2023-08-01T05:27:10;99385.83;;;16.29;94.85
76730;BME280;65653;53.106;18.046;2023-08-01T05:29:37;99377.94;;;16.37;94.52
76730;BME280;65653;53.106;18.046;2023-08-01T05:32:04;99378.17;;;16.42;94.44
76730;BME280;65653;53.106;18.046;2023-08-01T05:34:31;99378.23;;;16.43;94.92
76730;BME280;65653;53.106;18.046;2023-08-01T05:36:57;99376.64;;;16.36;95.54
76730;BME280;65653;53.106;18.046;2023-08-01T05:39:24;99377.36;;;16.36;95.85
76730;BME280;65653;53.106;18.046;2023-08-01T05:41:51;99373.96;;;16.39;95.94
76730;BME280;65653;53.106;18.046;2023-08-01T05:44:17;99374.06;;;16.36;96.55
76730;BME280;65653;53.106;18.046;2023-08-01T05:46:44;99371.48;;;16.36;96.42
76730;BME280;65653;53.106;18.046;2023-08-01T05:49:11;99372.95;;;16.37;96.60
76730;BME280;65653;53.106;18.046;2023-08-01T05:51:38;99373.00;;;16.33;97.25
76730;BME280;65653;53.106;18.046;2023-08-01T05:54:04;99367.96;;;16.29;97.61
76730;BME280;65653;53.106;18.046;2023-08-01T05:56:31;99364.15;;;16.30;97.90
76730;BME280;65653;53.106;18.046;2023-08-01T05:58:58;99365.16;;;16.31;97.79
76730;BME280;65653;53.106;18.046;2023-08-01T06:01:25;99361.05;;;16.35;97.63
76730;BME280;65653;53.106;18.046;2023-08-01T06:03:51;99357.08;;;16.37;97.71
76730;BME280;65653;53.106;18.046;2023-08-01T06:06:18;99354.66;;;16.34;97.92
76730;BME280;65653;53.106;18.046;2023-08-01T06:08:44;99352.14;;;16.31;98.23
76730;BME280;65653;53.106;18.046;2023-08-01T06:11:11;99354.54;;;16.29;98.34
76730;BME280;65653;53.106;18.046;2023-08-01T06:13:38;99355.42;;;16.27;98.45
76730;BME280;65653;53.106;18.046;2023-08-01T06:16:05;99359.72;;;16.24;98.95
76730;BME280;65653;53.106;18.046;2023-08-01T06:18:31;99366.08;;;16.20;99.43
76730;BME280;65653;53.106;18.046;2023-08-01T06:20:58;99361.27;;;16.19;99.91
76730;BME280;65653;53.106;18.046;2023-08-01T06:23:25;99358.14;;;16.19;99.80
76730;BME280;65653;53.106;18.046;2023-08-01T06:25:52;99354.58;;;16.22;99.68
76730;BME280;65653;53.106;18.046;2023-08-01T06:28:18;99354.93;;;16.26;99.31
76730;BME280;65653;53.106;18.046;2023-08-01T06:30:45;99351.63;;;16.26;99.75
76730;BME280;65653;53.106;18.046;2023-08-01T06:33:12;99348.83;;;16.28;99.62
76730;BME280;65653;53.106;18.046;2023-08-01T06:35:39;99350.13;;;16.31;99.59
76730;BME280;65653;53.106;18.046;2023-08-01T06:38:06;99344.77;;;16.35;99.15
76730;BME280;65653;53.106;18.046;2023-08-01T06:40:32;99341.15;;;16.40;99.26
76730;BME280;65653;53.106;18.046;2023-08-01T06:42:59;99340.55;;;16.43;99.29
76730;BME280;65653;53.106;18.046;2023-08-01T06:45:25;99345.02;;;16.44;98.65
76730;BME280;65653;53.106;18.046;2023-08-01T06:47:52;99351.27;;;16.45;99.21
76730;BME280;65653;53.106;18.046;2023-08-01T06:50:19;99348.23;;;16.50;99.15
76730;BME280;65653;53.106;18.046;2023-08-01T06:52:46;99344.41;;;16.58;98.43
76730;BME280;65653;53.106;18.046;2023-08-01T06:55:12;99340.39;;;16.68;98.49
76730;BME280;65653;53.106;18.046;2023-08-01T06:57:39;99338.09;;;16.78;98.13
76730;BME280;65653;53.106;18.046;2023-08-01T07:00:06;99335.54;;;16.84;97.93
76730;BME280;65653;53.106;18.046;2023-08-01T07:02:33;99334.52;;;16.90;97.65
76730;BME280;65653;53.106;18.046;2023-08-01T07:04:59;99329.99;;;16.94;97.74
76730;BME280;65653;53.106;18.046;2023-08-01T07:07:26;99334.69;;;16.97;97.56
76730;BME280;65653;53.106;18.046;2023-08-01T07:09:52;99327.93;;;16.94;97.76
76730;BME280;65653;53.106;18.046;2023-08-01T07:12:19;99320.84;;;16.99;97.64
76730;BME280;65653;53.106;18.046;2023-08-01T07:14:46;99323.05;;;17.10;97.38
76730;BME280;65653;53.106;18.046;2023-08-01T07:17:12;99319.75;;;17.15;97.10
76730;BME280;65653;53.106;18.046;2023-08-01T07:19:38;99314.63;;;17.26;96.70
76730;BME280;65653;53.106;18.046;2023-08-01T07:22:05;99308.10;;;17.44;96.38
76730;BME280;65653;53.106;18.046;2023-08-01T07:24:32;99300.02;;;17.75;95.14
76730;BME280;65653;53.106;18.046;2023-08-01T07:26:58;99298.76;;;17.82;93.75
76730;BME280;65653;53.106;18.046;2023-08-01T07:29:25;99303.15;;;17.65;94.64
76730;BME280;65653;53.106;18.046;2023-08-01T07:31:52;99298.23;;;17.61;95.35
76730;BME280;65653;53.106;18.046;2023-08-01T07:34:18;99295.36;;;17.65;95.12
76730;BME280;65653;53.106;18.046;2023-08-01T07:36:48;99294.40;;;17.68;95.12
76730;BME280;65653;53.106;18.046;2023-08-01T07:39:16;99291.92;;;17.68;95.65
76730;BME280;65653;53.106;18.046;2023-08-01T07:41:43;99293.06;;;17.63;95.36
76730;BME280;65653;53.106;18.046;2023-08-01T07:44:09;99291.23;;;17.62;95.51
76730;BME280;65653;53.106;18.046;2023-08-01T07:46:36;99291.29;;;17.63;95.41
76730;BME280;65653;53.106;18.046;2023-08-01T07:49:02;99289.15;;;17.64;94.98
76730;BME280;65653;53.106;18.046;2023-08-01T07:51:29;99287.36;;;17.62;95.13
76730;BME280;65653;53.106;18.046;2023-08-01T07:53:56;99288.34;;;17.54;95.54
76730;BME280;65653;53.106;18.046;2023-08-01T07:56:23;99288.13;;;17.51;95.92
76730;BME280;65653;53.106;18.046;2023-08-01T07:58:51;99287.17;;;17.52;96.05
76730;BME280;65653;53.106;18.046;2023-08-01T08:01:17;99283.25;;;17.51;96.25
76730;BME280;65653;53.106;18.046;2023-08-01T08:03:44;99282.62;;;17.49;96.52
76730;BME280;65653;53.106;18.046;2023-08-01T08:06:11;99285.52;;;17.48;96.32
76730;BME280;65653;53.106;18.046;2023-08-01T08:08:37;99278.95;;;17.51;96.41
76730;BME280;65653;53.106;18.046;2023-08-01T08:11:04;99282.11;;;17.49;96.33
76730;BME280;65653;53.106;18.046;2023-08-01T08:13:31;99275.77;;;17.49;96.61
76730;BME280;65653;53.106;18.046;2023-08-01T08:15:59;99278.92;;;17.56;96.57
76730;BME280;65653;53.106;18.046;2023-08-01T08:18:31;99274.34;;;17.45;96.47
76730;BME280;65653;53.106;18.046;2023-08-01T08:21:00;99270.95;;;17.38;96.78
76730;BME280;65653;53.106;18.046;2023-08-01T08:23:31;99271.02;;;17.34;97.05
76730;BME280;65653;53.106;18.046;2023-08-01T08:25:58;99268.72;;;17.36;96.87
76730;BME280;65653;53.106;18.046;2023-08-01T08:28:36;99268.92;;;17.40;97.13
76730;BME280;65653;53.106;18.046;2023-08-01T08:31:17;99266.77;;;17.47;96.34
76730;BME280;65653;53.106;18.046;2023-08-01T08:33:45;99268.85;;;17.52;96.69
76730;BME280;65653;53.106;18.046;2023-08-01T08:36:12;99262.77;;;17.64;96.11
76730;BME280;65653;53.106;18.046;2023-08-01T08:38:41;99260.11;;;17.81;95.61
76730;BME280;65653;53.106;18.046;2023-08-01T08:41:10;99260.25;;;17.97;94.58
76730;BME280;65653;53.106;18.046;2023-08-01T08:43:37;99259.60;;;17.95;94.39
76730;BME280;65653;53.106;18.046;2023-08-01T08:46:05;99254.23;;;18.01;94.69
76730;BME280;65653;53.106;18.046;2023-08-01T08:48:32;99257.61;;;18.01;94.23
76730;BME280;65653;53.106;18.046;2023-08-01T08:51:00;99254.63;;;18.01;93.64
76730;BME280;65653;53.106;18.046;2023-08-01T08:53:27;99246.98;;;18.06;93.49
76730;BME280;65653;53.106;18.046;2023-08-01T08:55:53;99247.70;;;18.24;93.29
76730;BME280;65653;53.106;18.046;2023-08-01T08:58:20;99240.27;;;18.54;92.02
76730;BME280;65653;53.106;18.046;2023-08-01T09:00:47;99235.34;;;18.79;89.95
76730;BME280;65653;53.106;18.046;2023-08-01T09:03:15;99232.04;;;19.29;87.95
76730;BME280;65653;53.106;18.046;2023-08-01T09:05:51;99232.79;;;19.62;85.94
76730;BME280;65653;53.106;18.046;2023-08-01T09:08:21;99227.75;;;19.73;85.45
76730;BME280;65653;53.106;18.046;2023-08-01T09:10:50;99224.59;;;19.87;84.30
76730;BME280;65653;53.106;18.046;2023-08-01T09:13:17;99225.80;;;20.06;83.35
76730;BME280;65653;53.106;18.046;2023-08-01T09:15:44;99215.94;;;20.41;82.25
76730;BME280;65653;53.106;18.046;2023-08-01T09:18:13;99207.16;;;20.55;80.79
76730;BME280;65653;53.106;18.046;2023-08-01T09:20:47;99201.36;;;20.96;78.76
76730;BME280;65653;53.106;18.046;2023-08-01T09:23:15;99193.63;;;21.25;76.91
76730;BME280;65653;53.106;18.046;2023-08-01T09:25:43;99194.20;;;21.55;75.90
76730;BME280;65653;53.106;18.046;2023-08-01T09:28:22;99189.56;;;21.94;74.40
76730;BME280;65653;53.106;18.046;2023-08-01T09:30:54;99188.73;;;22.79;72.50
76730;BME280;65653;53.106;18.046;2023-08-01T09:33:24;99185.21;;;22.54;71.47
76730;BME280;65653;53.106;18.046;2023-08-01T09:35:51;99182.11;;;22.51;72.87
76730;BME280;65653;53.106;18.046;2023-08-01T09:38:18;99183.61;;;22.23;72.12
76730;BME280;65653;53.106;18.046;2023-08-01T09:40:47;99178.05;;;22.03;73.84
76730;BME280;65653;53.106;18.046;2023-08-01T09:43:14;99177.34;;;22.32;72.55
76730;BME280;65653;53.106;18.046;2023-08-01T09:45:51;99175.50;;;22.29;72.01
76730;BME280;65653;53.106;18.046;2023-08-01T09:48:26;99170.09;;;22.13;72.98
76730;BME280;65653;53.106;18.046;2023-08-01T09:51:10;99165.73;;;21.81;72.49
76730;BME280;65653;53.106;18.046;2023-08-01T09:53:50;99168.58;;;21.59;74.44
76730;BME280;65653;53.106;18.046;2023-08-01T09:56:21;99161.58;;;21.64;73.47
76730;BME280;65653;53.106;18.046;2023-08-01T09:58:51;99164.45;;;21.33;74.01
76730;BME280;65653;53.106;18.046;2023-08-01T10:01:23;99160.30;;;21.10;74.10
76730;BME280;65653;53.106;18.046;2023-08-01T10:03:52;99159.45;;;20.88;74.74
76730;BME280;65653;53.106;18.046;2023-08-01T10:06:20;99161.50;;;20.78;75.56
76730;BME280;65653;53.106;18.046;2023-08-01T10:08:49;99161.57;;;20.52;76.36
76730;BME280;65653;53.106;18.046;2023-08-01T10:11:21;99158.88;;;20.49;77.28
76730;BME280;65653;53.106;18.046;2023-08-01T10:13:48;99157.61;;;20.50;76.75
76730;BME280;65653;53.106;18.046;2023-08-01T10:16:16;99157.02;;;20.52;76.62
76730;BME280;65653;53.106;18.046;2023-08-01T10:18:43;99151.07;;;20.42;76.95
76730;BME280;65653;53.106;18.046;2023-08-01T10:21:16;99156.77;;;20.34;77.04
76730;BME280;65653;53.106;18.046;2023-08-01T10:23:53;99153.53;;;20.25;78.03
76730;BME280;65653;53.106;18.046;2023-08-01T10:26:20;99153.74;;;20.30;78.21
76730;BME280;65653;53.106;18.046;2023-08-01T10:28:50;99149.02;;;20.27;78.65
76730;BME280;65653;53.106;18.046;2023-08-01T10:31:19;99147.30;;;20.24;79.59
76730;BME280;65653;53.106;18.046;2023-08-01T10:33:49;99136.83;;;20.35;79.28
76730;BME280;65653;53.106;18.046;2023-08-01T10:36:23;99133.66;;;20.56;78.26
76730;BME280;65653;53.106;18.046;2023-08-01T10:38:52;99121.59;;;20.96;77.36
76730;BME280;65653;53.106;18.046;2023-08-01T10:41:30;99120.02;;;21.40;75.36
76730;BME280;65653;53.106;18.046;2023-08-01T10:44:05;99116.89;;;21.64;74.04
76730;BME280;65653;53.106;18.046;2023-08-01T10:46:52;99105.03;;;21.68;73.98
76730;BME280;65653;53.106;18.046;2023-08-01T10:49:21;99099.89;;;21.41;75.43
76730;BME280;65653;53.106;18.046;2023-08-01T10:51:58;99094.73;;;20.99;76.74
76730;BME280;65653;53.106;18.046;2023-08-01T10:54:25;99089.35;;;20.51;78.39
76730;BME280;65653;53.106;18.046;2023-08-01T10:56:54;99094.58;;;20.19;79.77
76730;BME280;65653;53.106;18.046;2023-08-01T10:59:28;99091.11;;;19.98;81.05
76730;BME280;65653;53.106;18.046;2023-08-01T11:01:57;99091.45;;;19.79;83.07
76730;BME280;65653;53.106;18.046;2023-08-01T11:04:24;99089.70;;;19.65;83.82
76730;BME280;65653;53.106;18.046;2023-08-01T11:06:55;99085.35;;;19.48;84.47
76730;BME280;65653;53.106;18.046;2023-08-01T11:09:26;99085.77;;;19.47;84.23
76730;BME280;65653;53.106;18.046;2023-08-01T11:11:55;99084.05;;;19.27;85.08
76730;BME280;65653;53.106;18.046;2023-08-01T11:14:24;99084.36;;;19.06;86.23
76730;BME280;65653;53.106;18.046;2023-08-01T11:16:53;99082.42;;;18.92;86.60
76730;BME280;65653;53.106;18.046;2023-08-01T11:19:25;99080.10;;;18.75;88.18
76730;BME280;65653;53.106;18.046;2023-08-01T11:21:53;99073.92;;;18.70;88.78
76730;BME280;65653;53.106;18.046;2023-08-01T11:24:21;99072.53;;;18.65;89.81
76730;BME280;65653;53.106;18.046;2023-08-01T11:26:49;99075.16;;;18.55;91.61
76730;BME280;65653;53.106;18.046;2023-08-01T11:29:17;99074.94;;;18.50;92.34
76730;BME280;65653;53.106;18.046;2023-08-01T11:31:53;99075.03;;;18.43;93.79
76730;BME280;65653;53.106;18.046;2023-08-01T11:34:20;99072.09;;;18.29;94.86
76730;BME280;65653;53.106;18.046;2023-08-01T11:36:48;99075.98;;;18.10;96.39
76730;BME280;65653;53.106;18.046;2023-08-01T11:39:16;99089.58;;;18.04;97.37
76730;BME280;65653;53.106;18.046;2023-08-01T11:41:46;99084.21;;;18.08;97.95
76730;BME280;65653;53.106;18.046;2023-08-01T11:44:13;99080.52;;;18.26;97.09
76730;BME280;65653;53.106;18.046;2023-08-01T11:46:39;99071.34;;;18.42;96.03
76730;BME280;65653;53.106;18.046;2023-08-01T11:49:08;99073.23;;;18.37;96.32
76730;BME280;65653;53.106;18.046;2023-08-01T11:51:43;99068.23;;;18.39;96.06
76730;BME280;65653;53.106;18.046;2023-08-01T11:54:11;99066.98;;;18.49;95.64
76730;BME280;65653;53.106;18.046;2023-08-01T11:56:41;99056.52;;;18.67;95.11
76730;BME280;65653;53.106;18.046;2023-08-01T11:59:16;99058.55;;;18.76;94.67
76730;BME280;65653;53.106;18.046;2023-08-01T12:01:45;99058.41;;;18.87;94.34
76730;BME280;65653;53.106;18.046;2023-08-01T12:04:12;99055.20;;;18.96;93.13
76730;BME280;65653;53.106;18.046;2023-08-01T12:06:50;99050.95;;;19.24;92.92
76730;BME280;65653;53.106;18.046;2023-08-01T12:09:16;99046.52;;;19.32;92.15
76730;BME280;65653;53.106;18.046;2023-08-01T12:11:45;99042.23;;;19.55;91.16
76730;BME280;65653;53.106;18.046;2023-08-01T12:14:13;99037.89;;;20.00;89.89
76730;BME280;65653;53.106;18.046;2023-08-01T12:16:46;99033.61;;;20.64;87.28
76730;BME280;65653;53.106;18.046;2023-08-01T12:19:18;99031.27;;;21.17;85.65
76730;BME280;65653;53.106;18.046;2023-08-01T12:21:45;99028.36;;;21.48;82.45
76730;BME280;65653;53.106;18.046;2023-08-01T12:24:12;99027.11;;;21.90;81.60
76730;BME280;65653;53.106;18.046;2023-08-01T12:26:39;99024.77;;;22.12;80.56
76730;BME280;65653;53.106;18.046;2023-08-01T12:29:05;99023.92;;;22.03;80.86
76730;BME280;65653;53.106;18.046;2023-08-01T12:31:34;99017.61;;;21.77;80.52
76730;BME280;65653;53.106;18.046;2023-08-01T12:34:01;99018.05;;;22.16;79.97
76730;BME280;65653;53.106;18.046;2023-08-01T12:36:28;99018.65;;;22.38;78.38
76730;BME280;65653;53.106;18.046;2023-08-01T12:38:55;99021.81;;;22.11;79.03
76730;BME280;65653;53.106;18.046;2023-08-01T12:41:23;99008.82;;;22.30;79.17
76730;BME280;65653;53.106;18.046;2023-08-01T12:43:50;99011.52;;;21.92;79.50
76730;BME280;65653;53.106;18.046;2023-08-01T12:46:16;99014.06;;;21.91;79.93
76730;BME280;65653;53.106;18.046;2023-08-01T12:48:43;99007.77;;;21.62;80.57
76730;BME280;65653;53.106;18.046;2023-08-01T12:51:10;99007.96;;;21.50;81.77
76730;BME280;65653;53.106;18.046;2023-08-01T12:53:37;99004.70;;;21.46;82.42